Time;durP1;ratioP1;P1;durP2;ratioP2;P2;SDS_P1;SDS_P2;PMS_P1;PMS_P2;Temp;Humidity;BMP_temperature;BMP_pressure;BME280_temperature;BME280_humidity;BME280_pressure;Samples;Min_cycle;Max_cycle;Signal;HPM_P1;HPM_P2
2022/02/12 00:00:11;;;;;;;1.42;0.30;;;-1.30;99.90;;;;;;6123784;23;20009;-78
2022/02/12 00:02:40;;;;;;;1.60;0.40;;;-1.30;99.90;;;;;;6123993;23;20113;-78
2022/02/12 00:05:07;;;;;;;4.53;0.40;;;-1.40;99.90;;;;;;6148132;23;20347;-78
2022/02/12 00:07:33;;;;;;;1.50;0.40;;;-1.30;99.90;;;;;;6123750;23;20025;-78
2022/02/12 00:09:58;;;;;;;4.68;0.38;;;-1.50;99.90;;;;;;6150412;23;20017;-78
2022/02/12 00:12:25;;;;;;;2.10;0.32;;;-1.40;99.90;;;;;;6151244;23;20435;-78
2022/02/12 00:14:50;;;;;;;1.75;0.40;;;-1.30;99.90;;;;;;6151242;23;20076;-78
2022/02/12 00:17:16;;;;;;;3.20;0.40;;;-1.40;99.90;;;;;;6126370;23;20005;-78
2022/02/12 00:19:42;;;;;;;2.70;0.40;;;-1.50;99.90;;;;;;6127085;23;20013;-78
2022/02/12 00:22:08;;;;;;;3.78;0.73;;;-1.50;99.90;;;;;;6149855;23;20445;-78
2022/02/12 00:24:33;;;;;;;2.55;0.30;;;-1.50;99.90;;;;;;6126185;23;20045;-78
2022/02/12 00:26:59;;;;;;;2.28;0.40;;;-1.60;99.90;;;;;;6152600;23;20029;-78
2022/02/12 00:29:25;;;;;;;3.13;0.40;;;-1.50;99.90;;;;;;6151161;23;20060;-78
2022/02/12 00:31:50;;;;;;;1.70;0.30;;;-1.60;99.90;;;;;;6125836;23;20013;-78
2022/02/12 00:34:16;;;;;;;2.13;0.50;;;-1.50;99.90;;;;;;6153040;23;20035;-78
2022/02/12 00:36:41;;;;;;;1.98;0.35;;;-1.40;99.90;;;;;;6150340;23;20088;-78
2022/02/12 00:39:09;;;;;;;2.00;0.30;;;-1.60;99.90;;;;;;6126304;23;20009;-78
2022/02/12 00:41:34;;;;;;;3.40;0.30;;;-1.60;99.90;;;;;;6125078;23;20013;-78
2022/02/12 00:44:00;;;;;;;1.20;0.30;;;-1.60;99.90;;;;;;6126281;23;20017;-78
2022/02/12 00:46:26;;;;;;;2.13;0.30;;;-1.60;99.90;;;;;;6152707;23;20490;-79
2022/02/12 00:48:51;;;;;;;2.40;0.40;;;-1.40;99.90;;;;;;6125962;23;20005;-78
2022/02/12 00:51:17;;;;;;;3.20;0.40;;;-1.60;99.90;;;;;;6149729;23;20037;-79
2022/02/12 00:53:42;;;;;;;1.90;0.80;;;-1.60;99.90;;;;;;6125506;23;20041;-78
2022/02/12 00:56:08;;;;;;;2.75;0.32;;;-1.60;99.90;;;;;;6126729;23;20454;-79
2022/02/12 00:58:34;;;;;;;1.33;0.30;;;-1.60;99.90;;;;;;6126405;23;20323;-78
2022/02/12 01:01:00;;;;;;;1.30;0.40;;;-1.50;99.90;;;;;;6151588;23;20033;-79
2022/02/12 01:03:26;;;;;;;1.65;0.45;;;-1.50;99.90;;;;;;6126056;23;20009;-78
2022/02/12 01:05:52;;;;;;;3.50;0.47;;;-1.50;99.90;;;;;;6152602;23;20089;-79
2022/02/12 01:08:18;;;;;;;1.42;0.30;;;-1.60;99.90;;;;;;6127188;23;20041;-78
2022/02/12 01:10:44;;;;;;;1.77;0.40;;;-1.60;99.90;;;;;;6151515;23;20009;-78
2022/02/12 01:13:10;;;;;;;3.20;0.30;;;-1.60;99.90;;;;;;6150255;23;20509;-78
2022/02/12 01:15:36;;;;;;;1.30;0.35;;;-1.50;99.90;;;;;;6125744;23;20403;-78
2022/02/12 01:18:03;;;;;;;1.08;0.30;;;-1.60;99.90;;;;;;6126410;23;20005;-78
2022/02/12 01:20:29;;;;;;;1.25;0.28;;;-1.60;99.90;;;;;;6125981;23;20017;-78
2022/02/12 01:22:54;;;;;;;1.52;0.40;;;-1.70;99.90;;;;;;6150523;23;20009;-79
2022/02/12 01:25:20;;;;;;;3.80;0.77;;;-1.70;99.90;;;;;;6126331;23;20013;-78
2022/02/12 01:27:45;;;;;;;1.33;0.30;;;-1.70;99.90;;;;;;6125570;23;20043;-78
2022/02/12 01:30:11;;;;;;;2.17;0.40;;;-1.70;99.90;;;;;;6101797;23;20064;-78
2022/02/12 01:32:38;;;;;;;2.33;0.40;;;-1.70;99.90;;;;;;6124930;23;20006;-78
2022/02/12 01:35:04;;;;;;;1.83;0.30;;;-1.70;99.90;;;;;;6101652;23;20016;-78
2022/02/12 01:37:30;;;;;;;1.58;0.30;;;-1.60;99.90;;;;;;6101417;23;20327;-78
2022/02/12 01:39:55;;;;;;;3.05;0.30;;;-1.70;99.90;;;;;;6126612;23;20020;-78
2022/02/12 01:42:21;;;;;;;1.85;0.30;;;-1.70;99.90;;;;;;6125526;23;20378;-78
2022/02/12 01:44:47;;;;;;;2.75;0.30;;;-1.80;99.90;;;;;;6100983;23;20208;-78
2022/02/12 01:47:14;;;;;;;1.70;0.35;;;-1.80;99.90;;;;;;6100727;23;20509;-78
2022/02/12 01:49:41;;;;;;;1.67;0.40;;;-1.90;99.90;;;;;;6150433;23;20017;-78
2022/02/12 01:52:09;;;;;;;3.30;0.30;;;-1.90;99.90;;;;;;6125483;23;20083;-79
2022/02/12 01:54:35;;;;;;;2.17;0.30;;;-1.80;99.90;;;;;;6125685;23;20013;-79
2022/02/12 01:57:03;;;;;;;1.60;0.30;;;-1.80;99.90;;;;;;6100847;23;20345;-78
2022/02/12 01:59:28;;;;;;;3.50;0.40;;;-1.80;99.90;;;;;;6100902;23;20033;-78
2022/02/12 02:01:54;;;;;;;2.03;0.30;;;-2.00;99.90;;;;;;6100668;23;20434;-78
2022/02/12 02:04:20;;;;;;;1.60;0.40;;;-1.90;99.90;;;;;;6151628;23;20020;-78
2022/02/12 02:06:47;;;;;;;2.25;0.30;;;-2.00;99.90;;;;;;6151480;23;20047;-78
2022/02/12 02:09:15;;;;;;;2.42;0.30;;;-2.00;99.90;;;;;;6125388;23;20091;-78
2022/02/12 02:11:41;;;;;;;2.05;0.30;;;-2.10;99.90;;;;;;6099695;23;20013;-79
2022/02/12 02:14:07;;;;;;;1.42;0.30;;;-2.20;99.90;;;;;;6124221;23;20330;-78
2022/02/12 02:16:33;;;;;;;1.35;0.30;;;-2.10;99.90;;;;;;6099224;23;20013;-78
2022/02/12 02:18:59;;;;;;;2.72;0.68;;;-1.90;99.90;;;;;;6124928;23;20009;-77
2022/02/12 02:21:26;;;;;;;1.88;0.30;;;-2.10;99.90;;;;;;6099922;23;20390;-79
2022/02/12 02:23:53;;;;;;;2.42;0.40;;;-2.10;99.90;;;;;;6112292;23;20078;-77
2022/02/12 02:26:19;;;;;;;2.38;0.40;;;-1.90;99.90;;;;;;6150454;23;20312;-77
2022/02/12 02:28:46;;;;;;;1.27;0.38;;;-1.90;99.90;;;;;;6124578;23;20014;-77
2022/02/12 02:31:13;;;;;;;1.88;0.40;;;-2.00;99.90;;;;;;6148320;23;20100;-77
2022/02/12 02:33:38;;;;;;;2.33;0.32;;;-2.10;99.90;;;;;;6150374;23;20045;-78
2022/02/12 02:36:04;;;;;;;1.45;0.30;;;-2.30;99.90;;;;;;6123818;23;20013;-77
2022/02/12 02:38:31;;;;;;;2.47;0.30;;;-2.30;99.90;;;;;;6148725;23;20037;-77
2022/02/12 02:40:57;;;;;;;2.75;0.40;;;-2.20;99.90;;;;;;6123311;23;20009;-77
2022/02/12 02:43:24;;;;;;;1.15;0.30;;;-2.20;99.90;;;;;;6124508;23;20025;-76
2022/02/12 02:45:50;;;;;;;3.72;0.40;;;-2.20;99.90;;;;;;6123818;23;20018;-77
2022/02/12 02:48:16;;;;;;;1.98;0.30;;;-2.10;99.90;;;;;;6149267;23;20335;-77
2022/02/12 02:56:12;;;;;;;1.83;0.40;;;-2.00;99.90;;;;;;6149316;23;20445;-77
2022/02/12 02:58:42;;;;;;;1.50;0.30;;;-2.10;99.90;;;;;;6149384;23;20001;-77
2022/02/12 03:01:19;;;;;;;2.10;0.40;;;-2.10;99.90;;;;;;6149463;23;20020;-77
2022/02/12 03:03:48;;;;;;;1.42;0.30;;;-2.20;99.90;;;;;;6148854;23;20378;-76
2022/02/12 03:06:14;;;;;;;3.00;0.50;;;-2.20;99.90;;;;;;6149921;23;20418;-77
2022/02/12 03:08:40;;;;;;;1.60;0.30;;;-2.20;99.90;;;;;;6148006;23;20056;-76
2022/02/12 03:11:07;;;;;;;1.00;0.30;;;-2.10;99.90;;;;;;6124692;23;20005;-77
2022/02/12 03:13:33;;;;;;;1.83;0.30;;;-2.10;99.90;;;;;;6124892;23;20009;-77
2022/02/12 03:15:59;;;;;;;1.05;0.30;;;-2.10;99.90;;;;;;6150252;23;20593;-77
2022/02/12 03:18:25;;;;;;;3.17;0.40;;;-2.10;99.90;;;;;;6126215;23;19997;-76
2022/02/12 03:20:52;;;;;;;2.30;0.50;;;-2.20;99.90;;;;;;6123340;23;20052;-76
2022/02/12 03:23:17;;;;;;;1.88;0.50;;;-2.30;99.90;;;;;;6124555;23;20541;-76
2022/02/12 03:25:43;;;;;;;3.45;0.30;;;-2.30;99.90;;;;;;6148533;23;20006;-77
2022/02/12 03:28:10;;;;;;;2.08;0.40;;;-2.10;99.90;;;;;;6148795;23;20028;-77
2022/02/12 03:30:39;;;;;;;2.50;0.30;;;-2.00;99.90;;;;;;6149159;23;20011;-77
2022/02/12 03:33:05;;;;;;;2.78;0.40;;;-2.10;99.90;;;;;;6150239;23;20435;-77
2022/02/12 03:35:32;;;;;;;1.52;0.40;;;-2.00;99.90;;;;;;6122446;23;20021;-76
2022/02/12 03:38:09;;;;;;;1.88;0.25;;;-2.00;99.90;;;;;;6150640;23;20064;-76
2022/02/12 03:40:37;;;;;;;1.58;0.25;;;-1.90;99.90;;;;;;6149816;23;20081;-76
2022/02/12 03:43:03;;;;;;;2.22;0.30;;;-1.90;99.90;;;;;;6123043;23;20010;-76
2022/02/12 03:45:29;;;;;;;1.30;0.30;;;-1.90;99.90;;;;;;6148483;23;20006;-76
2022/02/12 03:47:54;;;;;;;1.90;0.30;;;-1.90;99.90;;;;;;6124716;23;20096;-76
2022/02/12 03:50:20;;;;;;;2.65;0.30;;;-2.00;99.90;;;;;;6148544;23;20016;-76
2022/02/12 03:52:46;;;;;;;1.60;0.38;;;-2.00;99.90;;;;;;6148395;23;20013;-76
2022/02/12 03:55:11;;;;;;;1.50;0.30;;;-2.10;99.90;;;;;;6149806;23;20431;-77
2022/02/12 03:57:37;;;;;;;1.10;0.20;;;-2.00;99.90;;;;;;6148118;23;20112;-76
2022/02/12 04:00:05;;;;;;;3.58;0.30;;;-1.90;99.90;;;;;;6149122;23;20183;-76
2022/02/12 04:02:37;;;;;;;2.63;0.30;;;-1.80;99.90;;;;;;6148162;23;20071;-76
2022/02/12 04:05:03;;;;;;;3.33;0.30;;;-1.80;99.90;;;;;;6149300;23;20017;-76
2022/02/12 04:07:29;;;;;;;0.98;0.30;;;-1.80;99.90;;;;;;6148935;23;20522;-76
2022/02/12 04:09:55;;;;;;;1.80;0.32;;;-1.80;99.90;;;;;;6149521;23;20033;-76
2022/02/12 04:12:20;;;;;;;1.65;0.32;;;-1.90;99.90;;;;;;6123287;23;20016;-76
2022/02/12 04:14:46;;;;;;;1.10;0.30;;;-2.00;99.90;;;;;;6147993;23;20119;-76
2022/02/12 04:17:11;;;;;;;2.10;0.30;;;-2.00;99.90;;;;;;6124540;23;20006;-76
2022/02/12 04:19:37;;;;;;;1.17;0.30;;;-1.90;99.90;;;;;;6150818;23;20030;-76
2022/02/12 04:22:03;;;;;;;1.58;0.30;;;-1.80;99.90;;;;;;6148389;23;20009;-76
2022/02/12 04:24:29;;;;;;;1.85;0.30;;;-1.80;99.90;;;;;;6122898;23;20029;-76
2022/02/12 04:26:54;;;;;;;1.77;0.30;;;-1.80;99.90;;;;;;6148502;23;20100;-77
2022/02/12 04:29:20;;;;;;;3.38;0.30;;;-1.70;99.90;;;;;;6124932;23;20002;-77
2022/02/12 04:31:46;;;;;;;1.00;0.30;;;-1.80;99.90;;;;;;6148081;23;20010;-76
2022/02/12 04:34:11;;;;;;;2.13;0.38;;;-1.80;99.90;;;;;;6149596;23;20013;-76
2022/02/12 04:36:37;;;;;;;1.52;0.30;;;-1.80;99.90;;;;;;6146887;23;20470;-76
2022/02/12 04:39:03;;;;;;;1.60;0.30;;;-1.70;99.90;;;;;;6123968;23;20017;-76
2022/02/12 04:41:30;;;;;;;1.80;0.30;;;-1.70;99.90;;;;;;6123954;23;20089;-76
2022/02/12 04:43:56;;;;;;;1.27;0.47;;;-1.70;99.90;;;;;;6124879;23;20098;-76
2022/02/12 04:46:22;;;;;;;3.70;0.40;;;-1.70;99.90;;;;;;6124085;23;20068;-76
2022/02/12 04:48:49;;;;;;;1.60;0.30;;;-1.70;99.90;;;;;;6123726;23;20468;-76
2022/02/12 04:51:16;;;;;;;2.42;0.30;;;-1.70;99.90;;;;;;6124290;23;20014;-76
2022/02/12 04:53:43;;;;;;;3.45;0.30;;;-1.70;99.90;;;;;;6149170;23;20049;-76
2022/02/12 04:56:08;;;;;;;1.50;0.40;;;-1.60;99.90;;;;;;6149219;23;20017;-76
2022/02/12 04:58:34;;;;;;;1.77;0.40;;;-1.60;99.90;;;;;;6149271;23;20013;-76
2022/02/12 05:00:59;;;;;;;1.38;0.30;;;-1.50;99.90;;;;;;6151084;23;20064;-76
2022/02/12 05:03:25;;;;;;;1.10;0.40;;;-1.60;99.90;;;;;;6152453;23;20012;-76
2022/02/12 05:05:51;;;;;;;1.63;0.40;;;-1.60;99.90;;;;;;6151051;23;20006;-76
2022/02/12 05:08:16;;;;;;;2.53;0.40;;;-1.60;99.90;;;;;;6150746;23;20445;-76
2022/02/12 05:10:42;;;;;;;5.15;0.40;;;-1.60;99.90;;;;;;6124668;23;20072;-76
2022/02/12 05:13:07;;;;;;;2.03;0.40;;;-1.60;99.90;;;;;;6125517;23;20071;-75
2022/02/12 05:15:33;;;;;;;2.05;0.40;;;-1.50;99.90;;;;;;6150259;23;20009;-76
2022/02/12 05:18:00;;;;;;;2.13;0.40;;;-1.60;99.90;;;;;;6150641;23;20006;-76
2022/02/12 05:20:26;;;;;;;1.83;0.32;;;-1.60;99.90;;;;;;6149260;23;20017;-76
2022/02/12 05:22:51;;;;;;;2.95;0.40;;;-1.50;99.90;;;;;;6149755;23;20490;-76
2022/02/12 05:25:17;;;;;;;2.47;0.40;;;-1.50;99.90;;;;;;6101626;23;20153;-76
2022/02/12 05:27:43;;;;;;;2.53;0.65;;;-1.50;99.90;;;;;;6101593;23;20488;-76
2022/02/12 05:30:09;;;;;;;1.20;0.30;;;-1.50;99.90;;;;;;6126981;23;20005;-76
2022/02/12 05:32:34;;;;;;;2.50;0.40;;;-1.50;99.90;;;;;;6125064;23;20013;-77
2022/02/12 05:35:00;;;;;;;2.00;0.40;;;-1.50;99.90;;;;;;6100697;23;20383;-76
2022/02/12 05:37:26;;;;;;;1.98;0.40;;;-1.50;99.90;;;;;;6101212;23;20092;-76
2022/02/12 05:39:51;;;;;;;1.73;0.40;;;-1.50;99.90;;;;;;6125269;23;20012;-76
2022/02/12 05:42:17;;;;;;;3.50;0.50;;;-1.50;99.90;;;;;;6101174;23;20072;-76
2022/02/12 05:44:42;;;;;;;3.50;0.60;;;-1.50;99.90;;;;;;6124622;23;20041;-76
2022/02/12 05:47:08;;;;;;;3.00;0.60;;;-1.40;99.90;;;;;;6101635;23;20021;-76
2022/02/12 05:49:34;;;;;;;3.13;0.57;;;-1.40;99.90;;;;;;6127172;23;20006;-76
2022/02/12 05:51:59;;;;;;;4.00;0.50;;;-1.40;99.90;;;;;;6127400;23;20508;-76
2022/02/12 05:54:25;;;;;;;1.88;0.40;;;-1.40;99.90;;;;;;6152454;23;20001;-76
2022/02/12 05:56:50;;;;;;;2.63;0.50;;;-1.50;99.90;;;;;;6127729;23;20103;-76
2022/02/12 05:59:18;;;;;;;4.10;0.50;;;-1.50;99.90;;;;;;6128295;23;20012;-76
2022/02/12 06:01:44;;;;;;;2.08;0.50;;;-1.50;99.90;;;;;;6101958;23;20009;-75
2022/02/12 06:04:10;;;;;;;2.03;0.52;;;-1.50;99.90;;;;;;6127385;23;20016;-76
2022/02/12 06:06:36;;;;;;;2.42;0.40;;;-1.50;99.90;;;;;;6102702;23;20017;-76
2022/02/12 06:09:02;;;;;;;2.67;0.40;;;-1.50;99.90;;;;;;6103168;23;20009;-76
2022/02/12 06:11:27;;;;;;;2.75;0.50;;;-1.50;99.90;;;;;;6102316;23;20010;-76
2022/02/12 06:13:53;;;;;;;3.15;0.60;;;-1.50;99.90;;;;;;6103123;23;20010;-77
2022/02/12 06:16:22;;;;;;;2.83;0.60;;;-1.40;99.90;;;;;;6153184;23;20009;-76
2022/02/12 06:18:48;;;;;;;4.82;0.75;;;-1.40;99.90;;;;;;6154137;23;20012;-76
2022/02/12 06:21:14;;;;;;;4.50;0.70;;;-1.40;99.90;;;;;;6102580;23;20069;-76
2022/02/12 06:23:41;;;;;;;1.83;0.50;;;-1.40;99.90;;;;;;6135877;23;20072;-76
2022/02/12 06:26:08;;;;;;;4.22;0.43;;;-1.40;99.90;;;;;;6151732;23;20020;-76
2022/02/12 06:28:34;;;;;;;2.50;0.40;;;-1.50;99.90;;;;;;6150862;23;20009;-76
2022/02/12 06:31:01;;;;;;;3.78;0.50;;;-1.50;99.90;;;;;;6126567;23;20435;-76
2022/02/12 06:33:28;;;;;;;2.25;0.50;;;-1.50;99.90;;;;;;6126862;23;20438;-76
2022/02/12 06:35:54;;;;;;;2.47;0.50;;;-1.50;99.90;;;;;;6127229;23;20411;-76
2022/02/12 06:38:20;;;;;;;3.28;0.50;;;-1.50;99.90;;;;;;6151700;23;20018;-76
2022/02/12 06:40:46;;;;;;;2.90;0.50;;;-1.50;99.90;;;;;;6126358;23;20019;-76
2022/02/12 06:43:12;;;;;;;1.90;0.47;;;-1.50;99.90;;;;;;6126213;23;20006;-77
2022/02/12 06:45:39;;;;;;;2.22;0.38;;;-1.40;99.90;;;;;;6126148;23;20128;-76
2022/02/12 06:48:05;;;;;;;2.13;0.40;;;-1.50;99.90;;;;;;6124860;23;20025;-76
2022/02/12 06:50:31;;;;;;;2.28;0.43;;;-1.50;99.90;;;;;;6150630;23;20469;-76
2022/02/12 06:52:57;;;;;;;2.80;0.40;;;-1.50;99.90;;;;;;6150386;23;20005;-76
2022/02/12 06:55:23;;;;;;;4.82;0.40;;;-1.50;99.90;;;;;;6151696;23;20057;-76
2022/02/12 06:57:50;;;;;;;1.35;0.40;;;-1.50;99.90;;;;;;6149491;23;20133;-76
2022/02/12 07:00:16;;;;;;;2.55;0.70;;;-1.50;99.90;;;;;;6148445;23;20009;-76
2022/02/12 07:02:41;;;;;;;2.55;0.40;;;-1.30;99.90;;;;;;6124861;23;20017;-77
2022/02/12 07:05:07;;;;;;;5.22;0.40;;;-1.40;99.90;;;;;;6149417;23;20040;-76
2022/02/12 07:07:46;;;;;;;1.58;0.40;;;-1.40;99.90;;;;;;6149705;23;20021;-76
2022/02/12 07:10:13;;;;;;;2.78;0.45;;;-1.40;99.90;;;;;;6151625;23;20427;-76
2022/02/12 07:12:39;;;;;;;2.97;0.52;;;-1.40;99.90;;;;;;6125220;23;20009;-76
2022/02/12 07:15:05;;;;;;;2.95;0.60;;;-1.30;99.90;;;;;;6126166;23;20012;-76
2022/02/12 07:17:30;;;;;;;2.80;0.40;;;-1.30;99.90;;;;;;6125854;23;20210;-77
2022/02/12 07:19:56;;;;;;;2.33;0.32;;;-1.30;99.90;;;;;;6123299;23;20014;-77
2022/02/12 07:22:26;;;;;;;7.60;1.10;;;-1.30;99.90;;;;;;6148239;23;20005;-76
2022/02/12 07:24:52;;;;;;;2.83;0.60;;;-1.10;99.90;;;;;;6147050;23;20045;-77
2022/02/12 07:27:19;;;;;;;2.25;0.45;;;-1.20;99.90;;;;;;6145383;23;20021;-77
2022/02/12 07:29:44;;;;;;;4.60;0.55;;;-1.20;99.90;;;;;;6120797;23;20335;-77
2022/02/12 07:32:10;;;;;;;4.90;0.57;;;-1.20;99.90;;;;;;6145396;23;20020;-77
2022/02/12 07:34:36;;;;;;;2.97;0.52;;;-1.20;99.90;;;;;;6119938;23;20068;-76
2022/02/12 07:37:02;;;;;;;5.38;0.70;;;-1.10;99.90;;;;;;6119853;23;20020;-77
2022/02/12 07:39:27;;;;;;;3.30;0.50;;;-1.10;99.90;;;;;;6143822;23;20443;-76
2022/02/12 07:41:53;;;;;;;3.50;1.63;;;-1.10;99.90;;;;;;6144685;23;20093;-76
2022/02/12 07:44:19;;;;;;;4.43;0.70;;;-1.00;99.90;;;;;;6145612;23;20092;-76
2022/02/12 07:46:45;;;;;;;3.70;0.90;;;-1.10;99.90;;;;;;6144638;23;20052;-77
2022/02/12 07:49:10;;;;;;;4.45;0.50;;;-1.00;99.90;;;;;;6144258;23;20422;-76
2022/02/12 07:51:36;;;;;;;3.08;0.50;;;-1.00;99.90;;;;;;6119003;23;20024;-76
2022/02/12 07:54:03;;;;;;;3.10;0.70;;;-1.00;99.90;;;;;;6145132;23;20012;-77
2022/02/12 07:56:29;;;;;;;2.53;0.52;;;-0.90;99.90;;;;;;6145370;23;20012;-76
2022/02/12 07:58:55;;;;;;;2.90;0.50;;;-0.80;99.90;;;;;;6120126;23;20006;-77
2022/02/12 08:01:21;;;;;;;2.78;0.43;;;-0.90;99.90;;;;;;6145393;23;20084;-77
2022/02/12 08:03:46;;;;;;;1.85;0.50;;;-0.90;99.90;;;;;;6145389;23;20009;-76
2022/02/12 08:08:57;;;;;;;1.65;0.38;;;-0.90;99.90;;;;;;6145146;23;20053;-77
2022/02/12 08:11:23;;;;;;;3.92;0.50;;;-0.90;99.90;;;;;;6144685;23;20033;-76
2022/02/12 08:13:50;;;;;;;2.35;0.40;;;-0.80;99.90;;;;;;6144930;23;20010;-78
2022/02/12 08:16:16;;;;;;;2.53;0.40;;;-0.80;99.90;;;;;;6120967;23;20516;-77
2022/02/12 08:18:42;;;;;;;3.38;0.50;;;-0.70;99.90;;;;;;6119885;23;20009;-77
2022/02/12 08:21:08;;;;;;;1.40;0.40;;;-0.70;99.90;;;;;;6145711;23;20041;-76
2022/02/12 08:23:33;;;;;;;2.20;0.40;;;-0.70;99.90;;;;;;6144433;23;20021;-76
2022/02/12 08:25:59;;;;;;;2.15;0.40;;;-0.70;99.90;;;;;;6145057;23;20390;-78
2022/02/12 08:28:25;;;;;;;2.42;0.43;;;-0.70;99.90;;;;;;6120865;23;20022;-78
2022/02/12 08:30:50;;;;;;;4.93;0.47;;;-0.60;99.90;;;;;;6146262;23;20453;-76
2022/02/12 08:33:16;;;;;;;1.23;0.40;;;-0.60;99.90;;;;;;6145366;23;20016;-77
2022/02/12 08:35:41;;;;;;;3.40;0.40;;;-0.60;99.90;;;;;;6119876;23;20065;-78
2022/02/12 08:38:07;;;;;;;2.60;0.38;;;-0.50;99.90;;;;;;6123668;23;20584;-81
2022/02/12 08:40:33;;;;;;;3.97;0.40;;;-0.40;99.90;;;;;;6148312;23;20100;-81
2022/02/12 08:42:59;;;;;;;3.03;0.40;;;-0.40;99.90;;;;;;6145850;23;20014;-81
2022/02/12 08:45:24;;;;;;;4.13;0.63;;;-0.40;99.90;;;;;;6125312;23;20009;-77
2022/02/12 08:47:50;;;;;;;2.67;0.50;;;-0.30;99.90;;;;;;6120860;23;20029;-77
2022/02/12 08:50:16;;;;;;;2.03;0.40;;;-0.30;99.90;;;;;;6121654;23;20343;-76
2022/02/12 08:52:43;;;;;;;3.08;0.40;;;-0.30;99.90;;;;;;6147178;23;20017;-79
2022/02/12 08:55:10;;;;;;;5.82;0.80;;;-0.30;99.90;;;;;;6123634;23;20103;-85
2022/02/12 08:57:36;;;;;;;3.90;0.60;;;-0.20;99.90;;;;;;6146630;23;20073;-77
2022/02/12 09:00:07;;;;;;;3.50;0.60;;;-0.20;99.90;;;;;;6125627;23;20011;-77
2022/02/12 09:02:33;;;;;;;3.78;0.70;;;-0.20;99.90;;;;;;6147057;23;20020;-77
2022/02/12 09:04:59;;;;;;;3.75;0.52;;;-0.10;99.90;;;;;;6146163;23;20006;-77
2022/02/12 09:07:24;;;;;;;5.30;0.50;;;0.00;99.90;;;;;;6146448;23;20029;-77
2022/02/12 09:09:50;;;;;;;3.80;0.55;;;0.10;99.90;;;;;;6145718;23;20504;-77
2022/02/12 09:12:16;;;;;;;4.70;0.60;;;0.20;99.90;;;;;;6146479;23;20036;-77
2022/02/12 09:14:42;;;;;;;2.70;0.50;;;0.30;99.90;;;;;;6146701;23;20020;-77
2022/02/12 09:17:09;;;;;;;2.50;0.50;;;0.30;99.90;;;;;;6146302;23;20017;-77
2022/02/12 09:19:35;;;;;;;2.50;0.50;;;0.40;99.90;;;;;;6146966;23;20339;-77
2022/02/12 09:22:02;;;;;;;3.50;0.50;;;0.40;99.90;;;;;;6146638;23;20017;-77
2022/02/12 09:24:27;;;;;;;2.88;0.60;;;0.50;99.90;;;;;;6121760;23;20024;-77
2022/02/12 09:26:53;;;;;;;2.20;0.40;;;0.50;99.90;;;;;;6146609;23;20020;-77
2022/02/12 09:29:19;;;;;;;3.42;0.60;;;0.60;99.90;;;;;;6147763;23;20080;-77
2022/02/12 09:31:44;;;;;;;1.58;0.40;;;0.70;99.90;;;;;;6144888;23;20060;-77
2022/02/12 09:34:10;;;;;;;4.72;0.73;;;0.80;99.90;;;;;;6147228;23;20052;-77
2022/02/12 09:36:37;;;;;;;2.92;0.40;;;0.90;99.90;;;;;;6145301;23;20450;-77
2022/02/12 09:39:03;;;;;;;3.25;0.40;;;1.10;99.90;;;;;;6145065;23;20013;-77
2022/02/12 09:41:29;;;;;;;3.25;0.40;;;1.30;99.90;;;;;;6121064;23;20024;-79
2022/02/12 09:43:56;;;;;;;2.85;0.60;;;1.40;99.90;;;;;;6146051;23;20009;-79
2022/02/12 09:46:27;;;;;;;4.82;0.40;;;1.50;99.90;;;;;;6145344;23;20017;-77
2022/02/12 09:48:54;;;;;;;2.95;0.40;;;1.70;99.90;;;;;;6145911;23;20018;-78
2022/02/12 09:51:23;;;;;;;6.90;0.52;;;1.90;99.90;;;;;;6120654;23;20009;-77
2022/02/12 09:53:49;;;;;;;5.65;0.65;;;2.00;99.90;;;;;;6119706;23;20010;-77
2022/02/12 09:56:14;;;;;;;4.25;0.60;;;2.10;99.90;;;;;;6145110;23;20009;-78
2022/02/12 09:58:40;;;;;;;3.15;0.57;;;2.10;99.90;;;;;;6120971;23;20104;-78
2022/02/12 10:01:07;;;;;;;3.50;0.50;;;2.20;99.90;;;;;;6144623;23;20010;-78
2022/02/12 10:03:33;;;;;;;2.70;0.40;;;2.40;99.90;;;;;;6144697;23;20016;-79
2022/02/12 10:05:59;;;;;;;2.72;0.35;;;2.40;99.90;;;;;;6120749;23;20017;-78
2022/02/12 10:08:25;;;;;;;3.25;0.50;;;2.30;99.90;;;;;;6145436;23;20339;-79
2022/02/12 10:10:52;;;;;;;2.00;0.40;;;2.40;99.90;;;;;;6107373;23;20443;-78
2022/02/12 10:13:27;;;;;;;1.50;0.40;;;2.20;99.90;;;;;;6119473;23;20018;-80
2022/02/12 10:15:55;;;;;;;2.28;0.32;;;2.30;99.90;;;;;;6144707;23;20079;-78
2022/02/12 10:18:26;;;;;;;2.88;0.55;;;2.40;99.90;;;;;;6145280;23;20359;-78
2022/02/12 10:20:56;;;;;;;2.83;0.50;;;2.60;99.90;;;;;;6119902;23;20024;-78
2022/02/12 10:23:27;;;;;;;4.65;0.50;;;2.70;99.90;;;;;;6144110;23;20025;-78
2022/02/12 10:26:02;;;;;;;6.22;0.88;;;2.90;99.90;;;;;;6120938;23;20020;-78
2022/02/12 10:28:29;;;;;;;4.00;0.60;;;2.90;99.90;;;;;;6120475;23;20354;-78
2022/02/12 10:30:55;;;;;;;3.38;0.68;;;3.00;99.90;;;;;;6144860;23;20014;-77
2022/02/12 10:33:21;;;;;;;5.97;0.70;;;3.10;99.90;;;;;;6145610;23;20438;-78
2022/02/12 10:36:05;;;;;;;4.78;0.70;;;3.10;99.90;;;;;;6146521;23;20370;-78
2022/02/12 10:38:33;;;;;;;4.38;0.65;;;3.30;99.90;;;;;;6143983;23;20014;-76
2022/02/12 10:41:07;;;;;;;3.05;0.60;;;3.50;99.90;;;;;;6144626;23;20010;-76
2022/02/12 10:43:34;;;;;;;7.82;1.00;;;3.60;99.90;;;;;;6143426;23;20013;-78
2022/02/12 10:46:01;;;;;;;6.53;0.73;;;3.60;99.90;;;;;;6145026;23;20029;-77
2022/02/12 10:48:30;;;;;;;4.20;0.90;;;3.60;99.90;;;;;;6120133;23;20315;-77
2022/02/12 10:50:59;;;;;;;2.50;0.65;;;3.70;99.90;;;;;;6118882;23;20016;-77
2022/02/12 10:53:58;;;;;;;4.68;1.05;;;4.00;99.90;;;;;;6145184;23;20080;-79
2022/02/12 10:56:50;;;;;;;6.45;1.40;;;3.90;99.90;;;;;;6144376;23;20020;-78
2022/02/12 10:59:22;;;;;;;5.05;0.90;;;3.90;99.90;;;;;;6144142;23;20065;-78
2022/02/12 11:01:49;;;;;;;3.15;0.60;;;4.00;99.90;;;;;;6119142;23;20013;-78
2022/02/12 11:04:15;;;;;;;2.75;0.50;;;4.20;99.90;;;;;;6119679;23;20053;-79
2022/02/12 11:06:45;;;;;;;3.10;0.55;;;4.30;99.90;;;;;;6094728;23;20052;-80
2022/02/12 11:09:12;;;;;;;4.68;0.50;;;4.40;99.90;;;;;;6119099;23;20005;-78
2022/02/12 11:11:38;;;;;;;3.90;0.40;;;4.40;99.90;;;;;;6119671;23;20017;-78
2022/02/12 11:14:07;;;;;;;3.78;0.93;;;4.60;99.90;;;;;;6146561;23;20094;-78
2022/02/12 11:16:36;;;;;;;6.15;0.70;;;4.70;99.90;;;;;;6146256;23;20008;-78
2022/02/12 11:19:04;;;;;;;5.85;0.60;;;4.60;99.90;;;;;;6144415;23;20020;-78
2022/02/12 11:21:30;;;;;;;6.70;0.88;;;4.80;99.90;;;;;;6143590;23;20020;-79
2022/02/12 11:24:08;;;;;;;5.13;0.60;;;5.00;99.90;;;;;;6144900;23;20021;-79
2022/02/12 11:26:43;;;;;;;6.10;0.80;;;4.90;99.90;;;;;;6146569;23;20005;-78
2022/02/12 11:29:31;;;;;;;3.78;0.60;;;5.10;99.90;;;;;;6119014;23;20128;-78
2022/02/12 11:32:12;;;;;;;5.18;0.60;;;5.30;99.90;;;;;;6143866;23;20013;-78
2022/02/12 11:35:08;;;;;;;2.95;0.50;;;5.40;99.90;;;;;;6144386;23;20010;-78
2022/02/12 11:37:37;;;;;;;2.63;0.50;;;5.40;99.90;;;;;;6143977;23;20009;-78
2022/02/12 11:40:15;;;;;;;6.95;0.68;;;5.50;99.90;;;;;;6143773;23;20017;-79
2022/02/12 11:42:54;;;;;;;2.50;0.40;;;5.60;99.90;;;;;;6120021;23;20512;-78
2022/02/12 11:45:36;;;;;;;4.93;0.73;;;5.70;99.90;;;;;;6120749;23;20020;-79
2022/02/12 11:48:13;;;;;;;6.03;0.50;;;5.70;99.90;;;;;;6142784;23;20014;-78
2022/02/12 11:50:43;;;;;;;6.25;0.60;;;5.80;99.90;;;;;;6145301;23;20009;-78
2022/02/12 11:53:28;;;;;;;;;;;5.80;99.90;;;;;;6147538;23;20088;-78
2022/02/12 11:55:53;;;;;;;3.92;0.40;;;6.00;99.90;;;;;;6144605;23;20330;-78
2022/02/12 11:58:42;;;;;;;4.10;0.70;;;6.20;99.90;;;;;;6145727;23;20025;-78
2022/02/12 12:01:23;;;;;;;4.80;0.50;;;6.10;99.90;;;;;;6120846;23;20316;-78
2022/02/12 12:04:14;;;;;;;3.72;0.50;;;6.20;99.90;;;;;;6120286;23;20071;-78
2022/02/12 12:07:01;;;;;;;3.63;0.60;;;6.30;99.90;;;;;;6123702;23;20479;-78
2022/02/12 12:09:31;;;;;;;4.35;0.50;;;6.30;99.90;;;;;;6148452;23;20088;-78
2022/02/12 12:12:22;;;;;;;4.03;0.70;;;6.30;99.90;;;;;;6123942;23;20017;-78
2022/02/12 12:15:12;;;;;;;4.70;0.68;;;6.30;99.90;;;;;;6148044;23;20024;-78
2022/02/12 12:17:37;;;;;;;5.00;0.60;;;6.40;99.90;;;;;;6148022;23;20312;-78
2022/02/12 12:20:03;;;;;;;4.65;0.93;;;6.40;99.90;;;;;;6148404;23;20013;-79
2022/02/12 12:22:29;;;;;;;7.65;0.50;;;6.40;99.90;;;;;;6123214;23;20064;-78
2022/02/12 12:24:59;;;;;;;4.32;0.77;;;6.50;99.90;;;;;;6149193;23;20028;-79
2022/02/12 12:27:25;;;;;;;4.93;0.60;;;6.50;99.90;;;;;;6149811;23;20438;-78
2022/02/12 12:32:35;;;;;;;4.05;0.52;;;6.60;99.90;;;;;;6147686;23;20339;-78
2022/02/12 12:35:05;;;;;;;5.85;0.60;;;6.80;99.90;;;;;;6123760;23;20009;-78
2022/02/12 12:37:52;;;;;;;6.50;1.25;;;6.90;99.90;;;;;;6147337;23;20068;-78
2022/02/12 12:40:30;;;;;;;3.95;0.60;;;6.80;99.90;;;;;;6147452;23;20072;-77
2022/02/12 12:43:07;;;;;;;2.95;0.75;;;6.80;99.90;;;;;;6147049;23;20017;-78
2022/02/12 12:45:43;;;;;;;4.15;0.55;;;6.70;99.90;;;;;;6147492;23;20010;-77
2022/02/12 12:48:09;;;;;;;5.72;0.85;;;6.80;99.90;;;;;;6122990;23;20032;-78
2022/02/12 12:50:40;;;;;;;6.88;0.60;;;6.90;99.90;;;;;;6147720;23;20018;-77
2022/02/12 12:53:08;;;;;;;7.15;0.60;;;6.90;99.90;;;;;;6123630;23;20541;-76
2022/02/12 12:55:35;;;;;;;6.50;0.68;;;6.80;99.90;;;;;;6148716;23;20013;-77
2022/02/12 12:58:13;;;;;;;3.70;0.50;;;6.80;99.90;;;;;;6122559;23;20045;-77
2022/02/12 13:00:39;;;;;;;2.75;0.40;;;6.90;99.90;;;;;;6122760;23;20092;-77
2022/02/12 13:03:04;;;;;;;5.75;0.40;;;7.10;99.90;;;;;;6146881;23;20013;-77